Matapedia, Canada
Current Conditions -  °F | °C
As of 2:00 AM on Wednesday 22 Oct 2014 (Local Time) from CZBF Reporting Station
Broken Clouds Broken Clouds  
Wind Chill: 34°   Ceiling: 6000
Heat Index: 37°   Visibility: 15mi
Dew Point: 34°   Wind: 5mph
Humidity: 87%   Direction: 330°NNW
Pressure: 30.35"   Gusts: NA
Location:  47.98°N, 66.96°W
Report Text: CZBF 220500Z 33004KT 290V360 15SM BKN060 03/01 A3035 RMK SC6 SLP280
Loading
Personal Weather Stations






























Interactive Weather Map
Tropical Storm Tracking
New forecast layout! Learn more

10-Day Weather Forecast

Advertisements
Track Severe Weather on mobile